sensor_id;sensor_type;location;lat;lon;timestamp;temperature;humidity
8008;DHT22;4049;49.468;11.200;2022-12-07T00:01:27;2.50;99.90
8008;DHT22;4049;49.468;11.200;2022-12-07T00:03:56;2.40;99.90
8008;DHT22;4049;49.468;11.200;2022-12-07T00:06:27;2.40;99.90
8008;DHT22;4049;49.468;11.200;2022-12-07T00:08:54;2.50;99.90
8008;DHT22;4049;49.468;11.200;2022-12-07T00:11:22;2.50;99.90
8008;DHT22;4049;49.468;11.200;2022-12-07T00:13:52;2.40;99.90
8008;DHT22;4049;49.468;11.200;2022-12-07T00:16:20;2.50;99.90
8008;DHT22;4049;49.468;11.200;2022-12-07T00:18:47;2.50;99.90
8008;DHT22;4049;49.468;11.200;2022-12-07T00:21:15;2.50;99.90
8008;DHT22;4049;49.468;11.200;2022-12-07T00:23:45;2.40;99.90
8008;DHT22;4049;49.468;11.200;2022-12-07T00:26:14;2.50;99.90
8008;DHT22;4049;49.468;11.200;2022-12-07T00:28:44;2.50;99.90
8008;DHT22;4049;49.468;11.200;2022-12-07T00:31:12;2.50;99.90
8008;DHT22;4049;49.468;11.200;2022-12-07T00:33:40;2.40;99.90
8008;DHT22;4049;49.468;11.200;2022-12-07T00:36:13;2.40;99.90
8008;DHT22;4049;49.468;11.200;2022-12-07T00:38:40;2.50;99.90
8008;DHT22;4049;49.468;11.200;2022-12-07T00:41:11;2.50;99.90
8008;DHT22;4049;49.468;11.200;2022-12-07T00:43:38;2.50;99.90
8008;DHT22;4049;49.468;11.200;2022-12-07T00:46:05;2.50;99.90
8008;DHT22;4049;49.468;11.200;2022-12-07T00:48:32;2.50;99.90
8008;DHT22;4049;49.468;11.200;2022-12-07T00:50:59;2.50;99.90
8008;DHT22;4049;49.468;11.200;2022-12-07T00:53:26;2.40;99.90
8008;DHT22;4049;49.468;11.200;2022-12-07T00:55:54;2.50;99.90
8008;DHT22;4049;49.468;11.200;2022-12-07T00:58:23;2.40;99.90
8008;DHT22;4049;49.468;11.200;2022-12-07T01:00:49;2.40;99.90
8008;DHT22;4049;49.468;11.200;2022-12-07T01:03:17;2.40;99.90
8008;DHT22;4049;49.468;11.200;2022-12-07T01:05:51;2.40;99.90
8008;DHT22;4049;49.468;11.200;2022-12-07T01:08:18;2.40;99.90
8008;DHT22;4049;49.468;11.200;2022-12-07T01:10:45;2.40;99.90
8008;DHT22;4049;49.468;11.200;2022-12-07T01:13:12;2.40;99.90
8008;DHT22;4049;49.468;11.200;2022-12-07T01:15:41;2.40;99.90
8008;DHT22;4049;49.468;11.200;2022-12-07T01:18:07;2.40;99.90
8008;DHT22;4049;49.468;11.200;2022-12-07T01:20:35;2.40;99.90
8008;DHT22;4049;49.468;11.200;2022-12-07T01:23:01;2.40;99.90
8008;DHT22;4049;49.468;11.200;2022-12-07T01:25:28;2.40;99.90
8008;DHT22;4049;49.468;11.200;2022-12-07T01:27:55;2.40;99.90
8008;DHT22;4049;49.468;11.200;2022-12-07T01:30:22;2.40;99.90
8008;DHT22;4049;49.468;11.200;2022-12-07T01:32:50;2.40;99.90
8008;DHT22;4049;49.468;11.200;2022-12-07T01:35:17;2.40;99.90
8008;DHT22;4049;49.468;11.200;2022-12-07T01:37:44;2.40;99.90
8008;DHT22;4049;49.468;11.200;2022-12-07T01:40:11;2.40;99.90
8008;DHT22;4049;49.468;11.200;2022-12-07T01:42:38;2.40;99.90
8008;DHT22;4049;49.468;11.200;2022-12-07T01:45:34;2.40;99.90
8008;DHT22;4049;49.468;11.200;2022-12-07T01:48:05;2.40;99.90
8008;DHT22;4049;49.468;11.200;2022-12-07T01:50:33;2.40;99.90
8008;DHT22;4049;49.468;11.200;2022-12-07T01:53:02;2.40;99.90
8008;DHT22;4049;49.468;11.200;2022-12-07T01:55:30;2.40;99.90
8008;DHT22;4049;49.468;11.200;2022-12-07T01:57:57;2.40;99.90
8008;DHT22;4049;49.468;11.200;2022-12-07T02:00:24;2.40;99.90
8008;DHT22;4049;49.468;11.200;2022-12-07T02:02:54;2.40;99.90
8008;DHT22;4049;49.468;11.200;2022-12-07T02:05:25;2.40;99.90
8008;DHT22;4049;49.468;11.200;2022-12-07T02:07:54;2.40;99.90
8008;DHT22;4049;49.468;11.200;2022-12-07T02:10:23;2.40;99.90
8008;DHT22;4049;49.468;11.200;2022-12-07T02:12:54;2.40;99.90
8008;DHT22;4049;49.468;11.200;2022-12-07T02:15:27;2.40;99.90
8008;DHT22;4049;49.468;11.200;2022-12-07T02:18:01;2.40;99.90
8008;DHT22;4049;49.468;11.200;2022-12-07T02:20:33;2.40;99.90
8008;DHT22;4049;49.468;11.200;2022-12-07T02:23:23;2.40;99.90
8008;DHT22;4049;49.468;11.200;2022-12-07T02:26:07;2.40;99.90
8008;DHT22;4049;49.468;11.200;2022-12-07T02:28:56;2.40;99.90
8008;DHT22;4049;49.468;11.200;2022-12-07T02:31:28;2.30;99.90
8008;DHT22;4049;49.468;11.200;2022-12-07T02:34:04;2.40;99.90
8008;DHT22;4049;49.468;11.200;2022-12-07T02:36:36;2.40;99.90
8008;DHT22;4049;49.468;11.200;2022-12-07T02:39:08;2.40;99.90
8008;DHT22;4049;49.468;11.200;2022-12-07T02:41:42;2.40;99.90
8008;DHT22;4049;49.468;11.200;2022-12-07T02:44:14;2.40;99.90
8008;DHT22;4049;49.468;11.200;2022-12-07T02:46:44;2.40;99.90
8008;DHT22;4049;49.468;11.200;2022-12-07T02:49:13;2.40;99.90
8008;DHT22;4049;49.468;11.200;2022-12-07T02:51:41;2.40;99.90
8008;DHT22;4049;49.468;11.200;2022-12-07T02:54:12;2.40;99.90
8008;DHT22;4049;49.468;11.200;2022-12-07T02:56:46;2.40;99.90
8008;DHT22;4049;49.468;11.200;2022-12-07T02:59:21;2.40;99.90
8008;DHT22;4049;49.468;11.200;2022-12-07T03:01:56;2.40;99.90
8008;DHT22;4049;49.468;11.200;2022-12-07T03:04:35;2.40;99.90
8008;DHT22;4049;49.468;11.200;2022-12-07T03:07:10;2.40;99.90
8008;DHT22;4049;49.468;11.200;2022-12-07T03:09:43;2.40;99.90
8008;DHT22;4049;49.468;11.200;2022-12-07T03:12:16;2.30;99.90
8008;DHT22;4049;49.468;11.200;2022-12-07T03:14:50;2.30;99.90
8008;DHT22;4049;49.468;11.200;2022-12-07T03:17:22;2.40;99.90
8008;DHT22;4049;49.468;11.200;2022-12-07T03:19:54;2.30;99.90
8008;DHT22;4049;49.468;11.200;2022-12-07T03:22:23;2.30;99.90
8008;DHT22;4049;49.468;11.200;2022-12-07T03:24:56;2.30;99.90
8008;DHT22;4049;49.468;11.200;2022-12-07T03:27:26;2.20;99.90
8008;DHT22;4049;49.468;11.200;2022-12-07T03:30:00;2.20;99.90
8008;DHT22;4049;49.468;11.200;2022-12-07T03:32:31;2.20;99.90
8008;DHT22;4049;49.468;11.200;2022-12-07T03:35:04;2.10;99.90
8008;DHT22;4049;49.468;11.200;2022-12-07T03:37:36;2.20;99.90
8008;DHT22;4049;49.468;11.200;2022-12-07T03:40:10;2.10;99.90
8008;DHT22;4049;49.468;11.200;2022-12-07T03:42:38;2.10;99.90
8008;DHT22;4049;49.468;11.200;2022-12-07T03:45:08;2.10;99.90
8008;DHT22;4049;49.468;11.200;2022-12-07T03:47:42;2.10;99.90
8008;DHT22;4049;49.468;11.200;2022-12-07T03:50:17;2.10;99.90
8008;DHT22;4049;49.468;11.200;2022-12-07T03:52:51;2.10;99.90
8008;DHT22;4049;49.468;11.200;2022-12-07T03:55:24;2.00;99.90
8008;DHT22;4049;49.468;11.200;2022-12-07T03:57:56;2.00;99.90
8008;DHT22;4049;49.468;11.200;2022-12-07T04:00:26;2.00;99.90
8008;DHT22;4049;49.468;11.200;2022-12-07T04:02:54;1.90;99.90
8008;DHT22;4049;49.468;11.200;2022-12-07T04:05:21;1.90;99.90
8008;DHT22;4049;49.468;11.200;2022-12-07T04:07:48;1.80;99.90
8008;DHT22;4049;49.468;11.200;2022-12-07T04:10:15;1.80;99.90
8008;DHT22;4049;49.468;11.200;2022-12-07T04:12:41;1.70;99.90
8008;DHT22;4049;49.468;11.200;2022-12-07T04:15:09;1.70;99.90
8008;DHT22;4049;49.468;11.200;2022-12-07T04:17:37;1.70;99.90
8008;DHT22;4049;49.468;11.200;2022-12-07T04:20:06;1.60;99.90
8008;DHT22;4049;49.468;11.200;2022-12-07T04:22:33;1.60;99.90
8008;DHT22;4049;49.468;11.200;2022-12-07T04:25:00;1.50;99.90
8008;DHT22;4049;49.468;11.200;2022-12-07T04:27:27;1.50;99.90
8008;DHT22;4049;49.468;11.200;2022-12-07T04:29:54;1.50;99.90
8008;DHT22;4049;49.468;11.200;2022-12-07T04:32:21;1.40;99.90
8008;DHT22;4049;49.468;11.200;2022-12-07T04:34:50;1.40;99.90
8008;DHT22;4049;49.468;11.200;2022-12-07T04:37:17;1.30;99.90
8008;DHT22;4049;49.468;11.200;2022-12-07T04:39:44;1.20;99.90
8008;DHT22;4049;49.468;11.200;2022-12-07T04:42:11;1.30;99.90
8008;DHT22;4049;49.468;11.200;2022-12-07T04:44:38;1.30;99.90
8008;DHT22;4049;49.468;11.200;2022-12-07T04:47:05;1.30;99.90
8008;DHT22;4049;49.468;11.200;2022-12-07T04:49:32;1.20;99.90
8008;DHT22;4049;49.468;11.200;2022-12-07T04:52:00;1.20;99.90
8008;DHT22;4049;49.468;11.200;2022-12-07T04:54:27;1.20;99.90
8008;DHT22;4049;49.468;11.200;2022-12-07T04:56:53;1.20;99.90
8008;DHT22;4049;49.468;11.200;2022-12-07T04:59:20;1.20;99.90
8008;DHT22;4049;49.468;11.200;2022-12-07T05:01:47;1.20;99.90
8008;DHT22;4049;49.468;11.200;2022-12-07T05:04:14;1.20;99.90
8008;DHT22;4049;49.468;11.200;2022-12-07T05:06:41;1.20;99.90
8008;DHT22;4049;49.468;11.200;2022-12-07T05:09:09;1.20;99.90
8008;DHT22;4049;49.468;11.200;2022-12-07T05:11:36;1.20;99.90
8008;DHT22;4049;49.468;11.200;2022-12-07T05:14:09;1.20;99.90
8008;DHT22;4049;49.468;11.200;2022-12-07T05:16:36;1.20;99.90
8008;DHT22;4049;49.468;11.200;2022-12-07T05:19:04;1.20;99.90
8008;DHT22;4049;49.468;11.200;2022-12-07T05:21:31;1.20;99.90
8008;DHT22;4049;49.468;11.200;2022-12-07T05:23:58;1.20;99.90
8008;DHT22;4049;49.468;11.200;2022-12-07T05:26:27;1.30;99.90
8008;DHT22;4049;49.468;11.200;2022-12-07T05:28:55;1.30;99.90
8008;DHT22;4049;49.468;11.200;2022-12-07T05:31:23;1.30;99.90
8008;DHT22;4049;49.468;11.200;2022-12-07T05:33:50;1.30;99.90
8008;DHT22;4049;49.468;11.200;2022-12-07T05:36:17;1.30;99.90
8008;DHT22;4049;49.468;11.200;2022-12-07T05:38:45;1.30;99.90
8008;DHT22;4049;49.468;11.200;2022-12-07T05:41:14;1.30;99.90
8008;DHT22;4049;49.468;11.200;2022-12-07T05:43:56;1.30;99.90
8008;DHT22;4049;49.468;11.200;2022-12-07T05:46:23;1.30;99.90
8008;DHT22;4049;49.468;11.200;2022-12-07T05:48:50;1.30;99.90
8008;DHT22;4049;49.468;11.200;2022-12-07T05:51:17;1.30;99.90
8008;DHT22;4049;49.468;11.200;2022-12-07T05:53:44;1.40;99.90
8008;DHT22;4049;49.468;11.200;2022-12-07T05:56:11;1.30;99.90
8008;DHT22;4049;49.468;11.200;2022-12-07T05:58:38;1.40;99.90
8008;DHT22;4049;49.468;11.200;2022-12-07T06:01:23;1.40;99.90
8008;DHT22;4049;49.468;11.200;2022-12-07T06:03:50;1.40;99.90
8008;DHT22;4049;49.468;11.200;2022-12-07T06:06:17;1.30;99.90
8008;DHT22;4049;49.468;11.200;2022-12-07T06:08:44;1.30;99.90
8008;DHT22;4049;49.468;11.200;2022-12-07T06:11:11;1.30;99.90
8008;DHT22;4049;49.468;11.200;2022-12-07T06:13:55;1.30;99.90
8008;DHT22;4049;49.468;11.200;2022-12-07T06:16:23;1.30;99.90
8008;DHT22;4049;49.468;11.200;2022-12-07T06:18:50;1.30;99.90
8008;DHT22;4049;49.468;11.200;2022-12-07T06:21:17;1.30;99.90
8008;DHT22;4049;49.468;11.200;2022-12-07T06:23:44;1.30;99.90
8008;DHT22;4049;49.468;11.200;2022-12-07T06:26:11;1.30;99.90
8008;DHT22;4049;49.468;11.200;2022-12-07T06:28:37;1.30;99.90
8008;DHT22;4049;49.468;11.200;2022-12-07T06:31:04;1.30;99.90
8008;DHT22;4049;49.468;11.200;2022-12-07T06:33:32;1.30;99.90
8008;DHT22;4049;49.468;11.200;2022-12-07T06:35:59;1.30;99.90
8008;DHT22;4049;49.468;11.200;2022-12-07T06:38:26;1.30;99.90
8008;DHT22;4049;49.468;11.200;2022-12-07T06:40:53;1.30;99.90
8008;DHT22;4049;49.468;11.200;2022-12-07T06:43:20;1.40;99.90
8008;DHT22;4049;49.468;11.200;2022-12-07T06:45:47;1.40;99.90
8008;DHT22;4049;49.468;11.200;2022-12-07T06:48:13;1.40;99.90
8008;DHT22;4049;49.468;11.200;2022-12-07T06:50:44;1.40;99.90
8008;DHT22;4049;49.468;11.200;2022-12-07T06:53:11;1.40;99.90
8008;DHT22;4049;49.468;11.200;2022-12-07T06:55:37;1.40;99.90
8008;DHT22;4049;49.468;11.200;2022-12-07T06:58:04;1.40;99.90
8008;DHT22;4049;49.468;11.200;2022-12-07T07:00:31;1.40;99.90
8008;DHT22;4049;49.468;11.200;2022-12-07T07:03:00;1.40;99.90
8008;DHT22;4049;49.468;11.200;2022-12-07T07:05:27;1.40;99.90
8008;DHT22;4049;49.468;11.200;2022-12-07T07:07:55;1.40;99.90
8008;DHT22;4049;49.468;11.200;2022-12-07T07:10:22;1.40;99.90
8008;DHT22;4049;49.468;11.200;2022-12-07T07:12:49;1.40;99.90
8008;DHT22;4049;49.468;11.200;2022-12-07T07:15:16;1.40;99.90
8008;DHT22;4049;49.468;11.200;2022-12-07T07:17:43;1.40;99.90
8008;DHT22;4049;49.468;11.200;2022-12-07T07:20:11;1.50;99.90
8008;DHT22;4049;49.468;11.200;2022-12-07T07:22:38;1.40;99.90
8008;DHT22;4049;49.468;11.200;2022-12-07T07:25:07;1.40;99.90
8008;DHT22;4049;49.468;11.200;2022-12-07T07:27:34;1.50;99.90
8008;DHT22;4049;49.468;11.200;2022-12-07T07:30:01;1.50;99.90
8008;DHT22;4049;49.468;11.200;2022-12-07T07:32:27;1.50;99.90
8008;DHT22;4049;49.468;11.200;2022-12-07T07:34:54;1.50;99.90
8008;DHT22;4049;49.468;11.200;2022-12-07T07:37:21;1.50;99.90
8008;DHT22;4049;49.468;11.200;2022-12-07T07:39:48;1.50;99.90
8008;DHT22;4049;49.468;11.200;2022-12-07T07:42:16;1.50;99.90
8008;DHT22;4049;49.468;11.200;2022-12-07T07:44:43;1.50;99.90
8008;DHT22;4049;49.468;11.200;2022-12-07T07:47:10;1.60;99.90
8008;DHT22;4049;49.468;11.200;2022-12-07T07:49:37;1.60;99.90
8008;DHT22;4049;49.468;11.200;2022-12-07T07:52:05;1.60;99.90
8008;DHT22;4049;49.468;11.200;2022-12-07T07:54:32;1.60;99.90
8008;DHT22;4049;49.468;11.200;2022-12-07T07:56:59;1.60;99.90
8008;DHT22;4049;49.468;11.200;2022-12-07T07:59:27;1.70;99.90
8008;DHT22;4049;49.468;11.200;2022-12-07T08:01:54;1.70;99.90
8008;DHT22;4049;49.468;11.200;2022-12-07T08:04:21;1.70;99.90
8008;DHT22;4049;49.468;11.200;2022-12-07T08:06:48;1.70;99.90
8008;DHT22;4049;49.468;11.200;2022-12-07T08:09:15;1.70;99.90
8008;DHT22;4049;49.468;11.200;2022-12-07T08:11:41;1.70;99.90
8008;DHT22;4049;49.468;11.200;2022-12-07T08:14:09;1.70;99.90
8008;DHT22;4049;49.468;11.200;2022-12-07T08:16:38;1.80;99.90
8008;DHT22;4049;49.468;11.200;2022-12-07T08:19:06;1.80;99.90
8008;DHT22;4049;49.468;11.200;2022-12-07T08:21:33;1.80;99.90
8008;DHT22;4049;49.468;11.200;2022-12-07T08:24:00;1.80;99.90
8008;DHT22;4049;49.468;11.200;2022-12-07T08:26:26;1.90;99.90
8008;DHT22;4049;49.468;11.200;2022-12-07T08:28:53;1.80;99.90
8008;DHT22;4049;49.468;11.200;2022-12-07T08:31:20;1.90;99.90
8008;DHT22;4049;49.468;11.200;2022-12-07T08:33:48;1.90;99.90
8008;DHT22;4049;49.468;11.200;2022-12-07T08:36:16;2.00;99.90
8008;DHT22;4049;49.468;11.200;2022-12-07T08:38:43;2.00;99.90
8008;DHT22;4049;49.468;11.200;2022-12-07T08:41:10;2.00;99.90
8008;DHT22;4049;49.468;11.200;2022-12-07T08:43:37;2.10;99.90
8008;DHT22;4049;49.468;11.200;2022-12-07T08:46:08;2.10;99.90
8008;DHT22;4049;49.468;11.200;2022-12-07T08:48:39;2.10;99.90
8008;DHT22;4049;49.468;11.200;2022-12-07T08:51:08;2.10;99.90
8008;DHT22;4049;49.468;11.200;2022-12-07T08:53:36;2.10;99.90
8008;DHT22;4049;49.468;11.200;2022-12-07T08:56:05;2.10;99.90
8008;DHT22;4049;49.468;11.200;2022-12-07T08:58:33;2.10;99.90
8008;DHT22;4049;49.468;11.200;2022-12-07T09:01:00;2.20;99.90
8008;DHT22;4049;49.468;11.200;2022-12-07T09:03:27;2.20;99.90
8008;DHT22;4049;49.468;11.200;2022-12-07T09:05:54;2.20;99.90
8008;DHT22;4049;49.468;11.200;2022-12-07T09:08:28;2.30;99.90
8008;DHT22;4049;49.468;11.200;2022-12-07T09:10:56;2.30;99.90
8008;DHT22;4049;49.468;11.200;2022-12-07T09:13:23;2.30;99.90
8008;DHT22;4049;49.468;11.200;2022-12-07T09:15:50;2.30;99.90
8008;DHT22;4049;49.468;11.200;2022-12-07T09:18:18;2.30;99.90
8008;DHT22;4049;49.468;11.200;2022-12-07T09:20:45;2.30;99.90
8008;DHT22;4049;49.468;11.200;2022-12-07T09:23:12;2.30;99.90
8008;DHT22;4049;49.468;11.200;2022-12-07T09:25:40;2.30;99.90
8008;DHT22;4049;49.468;11.200;2022-12-07T09:28:06;2.30;99.90
8008;DHT22;4049;49.468;11.200;2022-12-07T09:30:34;2.30;99.90
8008;DHT22;4049;49.468;11.200;2022-12-07T09:33:01;2.40;99.90
8008;DHT22;4049;49.468;11.200;2022-12-07T09:35:28;2.40;99.90
8008;DHT22;4049;49.468;11.200;2022-12-07T09:37:54;2.40;99.90
8008;DHT22;4049;49.468;11.200;2022-12-07T09:40:22;2.40;99.90
8008;DHT22;4049;49.468;11.200;2022-12-07T09:42:53;2.40;99.90
8008;DHT22;4049;49.468;11.200;2022-12-07T09:45:22;2.50;99.90
8008;DHT22;4049;49.468;11.200;2022-12-07T09:47:50;2.50;99.90
8008;DHT22;4049;49.468;11.200;2022-12-07T09:50:20;2.50;99.90
8008;DHT22;4049;49.468;11.200;2022-12-07T09:52:48;2.50;99.90
8008;DHT22;4049;49.468;11.200;2022-12-07T09:55:19;2.50;99.90
8008;DHT22;4049;49.468;11.200;2022-12-07T09:57:48;2.50;99.90
8008;DHT22;4049;49.468;11.200;2022-12-07T10:00:20;2.50;99.90
8008;DHT22;4049;49.468;11.200;2022-12-07T10:02:50;2.50;99.90
8008;DHT22;4049;49.468;11.200;2022-12-07T10:05:23;2.50;99.90
8008;DHT22;4049;49.468;11.200;2022-12-07T10:07:51;2.50;99.90
8008;DHT22;4049;49.468;11.200;2022-12-07T10:10:21;2.50;99.90
8008;DHT22;4049;49.468;11.200;2022-12-07T10:12:55;2.60;99.90
8008;DHT22;4049;49.468;11.200;2022-12-07T10:15:36;2.60;99.90
8008;DHT22;4049;49.468;11.200;2022-12-07T10:18:17;2.60;99.90
8008;DHT22;4049;49.468;11.200;2022-12-07T10:20:47;2.60;99.90
8008;DHT22;4049;49.468;11.200;2022-12-07T10:23:15;2.60;99.90
8008;DHT22;4049;49.468;11.200;2022-12-07T10:25:43;2.60;99.90
8008;DHT22;4049;49.468;11.200;2022-12-07T10:28:13;2.60;99.90
8008;DHT22;4049;49.468;11.200;2022-12-07T10:30:51;2.60;99.90
8008;DHT22;4049;49.468;11.200;2022-12-07T10:33:29;2.60;99.90
8008;DHT22;4049;49.468;11.200;2022-12-07T10:35:56;2.70;99.90
8008;DHT22;4049;49.468;11.200;2022-12-07T10:38:24;2.60;99.90
8008;DHT22;4049;49.468;11.200;2022-12-07T10:41:03;2.70;99.90
8008;DHT22;4049;49.468;11.200;2022-12-07T10:43:30;2.70;99.90
8008;DHT22;4049;49.468;11.200;2022-12-07T10:46:38;2.70;99.90
8008;DHT22;4049;49.468;11.200;2022-12-07T10:49:27;2.70;99.90
8008;DHT22;4049;49.468;11.200;2022-12-07T10:52:03;2.70;99.90
8008;DHT22;4049;49.468;11.200;2022-12-07T10:54:42;2.80;99.90
8008;DHT22;4049;49.468;11.200;2022-12-07T10:57:27;2.80;99.90
8008;DHT22;4049;49.468;11.200;2022-12-07T11:00:04;2.80;99.90
8008;DHT22;4049;49.468;11.200;2022-12-07T11:02:49;2.90;99.90
8008;DHT22;4049;49.468;11.200;2022-12-07T11:05:26;2.90;99.90
8008;DHT22;4049;49.468;11.200;2022-12-07T11:08:02;2.90;99.90
8008;DHT22;4049;49.468;11.200;2022-12-07T11:10:37;2.90;99.90
8008;DHT22;4049;49.468;11.200;2022-12-07T11:13:28;2.90;99.90
8008;DHT22;4049;49.468;11.200;2022-12-07T11:16:04;2.90;99.90
8008;DHT22;4049;49.468;11.200;2022-12-07T11:18:41;3.00;99.90
8008;DHT22;4049;49.468;11.200;2022-12-07T11:21:13;3.00;99.90
8008;DHT22;4049;49.468;11.200;2022-12-07T11:23:49;3.00;99.90
8008;DHT22;4049;49.468;11.200;2022-12-07T11:26:27;3.00;99.90
8008;DHT22;4049;49.468;11.200;2022-12-07T11:29:21;3.00;99.90
8008;DHT22;4049;49.468;11.200;2022-12-07T11:32:01;3.10;99.90
8008;DHT22;4049;49.468;11.200;2022-12-07T11:34:38;3.10;99.90
8008;DHT22;4049;49.468;11.200;2022-12-07T11:37:10;3.10;99.90
8008;DHT22;4049;49.468;11.200;2022-12-07T11:39:44;3.10;99.90
8008;DHT22;4049;49.468;11.200;2022-12-07T11:42:15;3.10;99.90
8008;DHT22;4049;49.468;11.200;2022-12-07T11:44:49;3.10;99.90
8008;DHT22;4049;49.468;11.200;2022-12-07T11:47:25;3.20;99.90
8008;DHT22;4049;49.468;11.200;2022-12-07T11:50:03;3.20;99.90
8008;DHT22;4049;49.468;11.200;2022-12-07T11:52:41;3.20;99.90
8008;DHT22;4049;49.468;11.200;2022-12-07T11:55:19;3.20;99.90
8008;DHT22;4049;49.468;11.200;2022-12-07T11:57:50;3.30;99.90
8008;DHT22;4049;49.468;11.200;2022-12-07T12:00:19;3.20;99.90
8008;DHT22;4049;49.468;11.200;2022-12-07T12:02:49;3.20;99.90
8008;DHT22;4049;49.468;11.200;2022-12-07T12:05:21;3.20;99.90
8008;DHT22;4049;49.468;11.200;2022-12-07T12:07:52;3.20;99.90
8008;DHT22;4049;49.468;11.200;2022-12-07T12:10:27;3.30;99.90
8008;DHT22;4049;49.468;11.200;2022-12-07T12:13:32;3.30;99.90
8008;DHT22;4049;49.468;11.200;2022-12-07T12:16:15;3.30;99.90
8008;DHT22;4049;49.468;11.200;2022-12-07T12:18:58;3.30;99.90
8008;DHT22;4049;49.468;11.200;2022-12-07T12:21:30;3.30;99.90
8008;DHT22;4049;49.468;11.200;2022-12-07T12:24:00;3.30;99.90
8008;DHT22;4049;49.468;11.200;2022-12-07T12:26:31;3.30;99.90
8008;DHT22;4049;49.468;11.200;2022-12-07T12:28:59;3.30;99.90
8008;DHT22;4049;49.468;11.200;2022-12-07T12:31:39;3.30;99.90
8008;DHT22;4049;49.468;11.200;2022-12-07T12:34:30;3.30;99.90
8008;DHT22;4049;49.468;11.200;2022-12-07T12:36:59;3.30;99.90
8008;DHT22;4049;49.468;11.200;2022-12-07T12:39:26;3.30;99.90
8008;DHT22;4049;49.468;11.200;2022-12-07T12:41:57;3.30;99.90
8008;DHT22;4049;49.468;11.200;2022-12-07T12:47:52;3.30;99.90
8008;DHT22;4049;49.468;11.200;2022-12-07T12:50:21;3.30;99.90
8008;DHT22;4049;49.468;11.200;2022-12-07T12:52:53;3.30;99.90
8008;DHT22;4049;49.468;11.200;2022-12-07T12:58:33;3.30;99.90
8008;DHT22;4049;49.468;11.200;2022-12-07T13:07:55;3.30;99.90
8008;DHT22;4049;49.468;11.200;2022-12-07T13:10:34;3.30;99.90
8008;DHT22;4049;49.468;11.200;2022-12-07T13:13:04;3.30;99.90
8008;DHT22;4049;49.468;11.200;2022-12-07T13:15:34;3.30;99.90
8008;DHT22;4049;49.468;11.200;2022-12-07T13:18:04;3.30;99.90
8008;DHT22;4049;49.468;11.200;2022-12-07T13:20:48;3.30;99.90
8008;DHT22;4049;49.468;11.200;2022-12-07T13:23:20;3.30;99.90
8008;DHT22;4049;49.468;11.200;2022-12-07T13:26:12;3.30;99.90
8008;DHT22;4049;49.468;11.200;2022-12-07T13:28:42;3.30;99.90
8008;DHT22;4049;49.468;11.200;2022-12-07T13:31:20;3.30;99.90
8008;DHT22;4049;49.468;11.200;2022-12-07T13:33:49;3.30;99.90
8008;DHT22;4049;49.468;11.200;2022-12-07T13:36:22;3.30;99.90
8008;DHT22;4049;49.468;11.200;2022-12-07T13:38:56;3.30;99.90
8008;DHT22;4049;49.468;11.200;2022-12-07T13:41:24;3.30;99.90
8008;DHT22;4049;49.468;11.200;2022-12-07T13:43:59;3.30;99.90
8008;DHT22;4049;49.468;11.200;2022-12-07T13:46:35;3.30;99.90
8008;DHT22;4049;49.468;11.200;2022-12-07T13:49:21;3.30;99.90
8008;DHT22;4049;49.468;11.200;2022-12-07T13:51:48;3.30;99.90
8008;DHT22;4049;49.468;11.200;2022-12-07T13:54:17;3.30;99.90
8008;DHT22;4049;49.468;11.200;2022-12-07T13:56:48;3.30;99.90
8008;DHT22;4049;49.468;11.200;2022-12-07T13:59:18;3.30;99.90
8008;DHT22;4049;49.468;11.200;2022-12-07T14:01:46;3.30;99.90
8008;DHT22;4049;49.468;11.200;2022-12-07T14:04:18;3.30;99.90
8008;DHT22;4049;49.468;11.200;2022-12-07T14:06:49;3.20;99.90
8008;DHT22;4049;49.468;11.200;2022-12-07T14:09:22;3.30;99.90
8008;DHT22;4049;49.468;11.200;2022-12-07T14:11:50;3.20;99.90
8008;DHT22;4049;49.468;11.200;2022-12-07T14:14:20;3.20;99.90
8008;DHT22;4049;49.468;11.200;2022-12-07T14:16:56;3.20;99.90
8008;DHT22;4049;49.468;11.200;2022-12-07T14:19:47;3.20;99.90
8008;DHT22;4049;49.468;11.200;2022-12-07T14:22:27;3.20;99.90
8008;DHT22;4049;49.468;11.200;2022-12-07T14:25:17;3.20;99.90
8008;DHT22;4049;49.468;11.200;2022-12-07T14:27:50;3.20;99.90
8008;DHT22;4049;49.468;11.200;2022-12-07T14:30:19;3.20;99.90
8008;DHT22;4049;49.468;11.200;2022-12-07T14:32:48;3.20;99.90
8008;DHT22;4049;49.468;11.200;2022-12-07T14:35:17;3.20;99.90
8008;DHT22;4049;49.468;11.200;2022-12-07T14:37:45;3.20;99.90
8008;DHT22;4049;49.468;11.200;2022-12-07T14:40:14;3.20;99.90
8008;DHT22;4049;49.468;11.200;2022-12-07T14:42:43;3.20;99.90
8008;DHT22;4049;49.468;11.200;2022-12-07T14:45:15;3.20;99.90
8008;DHT22;4049;49.468;11.200;2022-12-07T14:47:42;3.20;99.90
8008;DHT22;4049;49.468;11.200;2022-12-07T14:50:11;3.20;99.90
8008;DHT22;4049;49.468;11.200;2022-12-07T14:52:39;3.20;99.90
8008;DHT22;4049;49.468;11.200;2022-12-07T14:55:13;3.20;99.90
8008;DHT22;4049;49.468;11.200;2022-12-07T14:57:42;3.20;99.90
8008;DHT22;4049;49.468;11.200;2022-12-07T15:00:13;3.10;99.90
8008;DHT22;4049;49.468;11.200;2022-12-07T15:02:41;3.20;99.90
8008;DHT22;4049;49.468;11.200;2022-12-07T15:05:08;3.10;99.90
8008;DHT22;4049;49.468;11.200;2022-12-07T15:07:35;3.00;99.90
8008;DHT22;4049;49.468;11.200;2022-12-07T15:10:02;3.00;99.90
8008;DHT22;4049;49.468;11.200;2022-12-07T15:12:29;3.00;99.90
8008;DHT22;4049;49.468;11.200;2022-12-07T15:14:57;3.00;99.90
8008;DHT22;4049;49.468;11.200;2022-12-07T15:17:24;2.90;99.90
8008;DHT22;4049;49.468;11.200;2022-12-07T15:19:51;2.90;99.90
8008;DHT22;4049;49.468;11.200;2022-12-07T15:22:18;2.80;99.90
8008;DHT22;4049;49.468;11.200;2022-12-07T15:24:44;2.80;99.90
8008;DHT22;4049;49.468;11.200;2022-12-07T15:27:11;2.80;99.90
8008;DHT22;4049;49.468;11.200;2022-12-07T15:29:38;2.70;99.90
8008;DHT22;4049;49.468;11.200;2022-12-07T15:32:06;2.70;99.90
8008;DHT22;4049;49.468;11.200;2022-12-07T15:34:33;2.70;99.90
8008;DHT22;4049;49.468;11.200;2022-12-07T15:37:00;2.60;99.90
8008;DHT22;4049;49.468;11.200;2022-12-07T15:39:27;2.70;99.90
8008;DHT22;4049;49.468;11.200;2022-12-07T15:41:54;2.60;99.90
8008;DHT22;4049;49.468;11.200;2022-12-07T15:44:20;2.60;99.90
8008;DHT22;4049;49.468;11.200;2022-12-07T15:47:18;2.60;99.90
8008;DHT22;4049;49.468;11.200;2022-12-07T15:49:44;2.60;99.90
8008;DHT22;4049;49.468;11.200;2022-12-07T15:52:11;2.60;99.90
8008;DHT22;4049;49.468;11.200;2022-12-07T15:54:38;2.60;99.90
8008;DHT22;4049;49.468;11.200;2022-12-07T15:57:05;2.50;99.90
8008;DHT22;4049;49.468;11.200;2022-12-07T15:59:32;2.50;99.90
8008;DHT22;4049;49.468;11.200;2022-12-07T16:01:58;2.50;99.90
8008;DHT22;4049;49.468;11.200;2022-12-07T16:04:28;2.50;99.90
8008;DHT22;4049;49.468;11.200;2022-12-07T16:06:55;2.50;99.90
8008;DHT22;4049;49.468;11.200;2022-12-07T16:09:22;2.50;99.90
8008;DHT22;4049;49.468;11.200;2022-12-07T16:11:49;2.50;99.90
8008;DHT22;4049;49.468;11.200;2022-12-07T16:14:17;2.50;99.90
8008;DHT22;4049;49.468;11.200;2022-12-07T16:16:44;2.50;99.90
8008;DHT22;4049;49.468;11.200;2022-12-07T16:19:11;2.50;99.90
8008;DHT22;4049;49.468;11.200;2022-12-07T16:21:39;2.60;99.90
8008;DHT22;4049;49.468;11.200;2022-12-07T16:24:08;2.60;99.90
8008;DHT22;4049;49.468;11.200;2022-12-07T16:26:35;2.60;99.90
8008;DHT22;4049;49.468;11.200;2022-12-07T16:29:02;2.60;99.90
8008;DHT22;4049;49.468;11.200;2022-12-07T16:31:29;2.60;99.90
8008;DHT22;4049;49.468;11.200;2022-12-07T16:33:57;2.60;99.90
8008;DHT22;4049;49.468;11.200;2022-12-07T16:36:25;2.60;99.90